Time;durP1;ratioP1;P1;durP2;ratioP2;P2;SDS_P1;SDS_P2;PMS_P1;PMS_P2;Temp;Humidity;BMP_temperature;BMP_pressure;BME280_temperature;BME280_humidity;BME280_pressure;Samples;Min_cycle;Max_cycle;Signal;HPM_P1;HPM_P2
2024/01/25 09:38:20;;;;;;;14.23;3.47;;;;;;;12.26;69.22;100264.53;6258148;22;20198;-88
2024/01/25 09:40:48;;;;;;;10.83;3.23;;;;;;;12.59;66.74;100286.88;6204867;22;41123;-89
2024/01/25 09:43:16;;;;;;;10.93;3.23;;;;;;;12.84;66.08;100291.00;6205264;22;42444;-88
2024/01/25 09:45:45;;;;;;;11.57;3.60;;;;;;;12.89;63.69;100241.09;6205138;22;42200;-89
2024/01/25 09:48:21;;;;;;;9.50;3.27;;;;;;;13.27;63.02;100279.97;6205296;22;39149;-90
2024/01/25 09:50:52;;;;;;;11.67;2.80;;;;;;;13.60;61.11;100297.78;6205064;22;41480;-90
2024/01/25 09:53:24;;;;;;;11.07;3.67;;;;;;;13.74;59.84;100308.59;6205536;22;41949;-89
2024/01/25 09:56:02;;;;;;;11.37;2.70;;;;;;;13.58;58.38;100259.78;6205263;22;41154;-90
2024/01/25 09:58:44;;;;;;;15.03;2.80;;;;;;;14.14;58.33;100327.78;6205596;22;41766;-91
2024/01/25 10:01:16;;;;;;;12.20;3.27;;;;;;;14.21;57.45;100305.22;6205651;22;42632;-92
2024/01/25 10:03:44;;;;;;;13.73;3.00;;;;;;;14.49;56.75;100316.09;6205209;22;41660;-89
2024/01/25 10:06:29;;;;;;;11.93;3.10;;;;;;;14.56;56.74;100312.16;6205548;22;41310;-89
2024/01/25 10:11:41;;;;;;;12.73;3.33;;;;;;;14.69;55.14;100315.88;6203806;22;42145;-89
2024/01/25 10:14:09;;;;;;;12.67;3.03;;;;;;;14.73;54.83;100340.53;6205462;22;41717;-88
2024/01/25 10:16:39;;;;;;;12.93;3.43;;;;;;;14.64;54.80;100315.25;6205871;22;41261;-92
2024/01/25 10:19:08;;;;;;;12.33;3.23;;;;;;;14.84;54.67;100331.94;6205918;22;40634;-89
2024/01/25 10:21:37;;;;;;;10.43;2.93;;;;;;;14.59;53.15;100279.97;6205622;22;42162;-89
2024/01/25 10:24:13;;;;;;;11.23;2.77;;;;;;;14.79;53.92;100302.00;6205129;22;43611;-90
2024/01/25 10:26:43;;;;;;;10.80;3.00;;;;;;;14.87;52.72;100294.41;6204419;22;41549;-89
2024/01/25 10:29:10;;;;;;;14.37;3.37;;;;;;;15.01;52.72;100270.47;6205667;22;41268;-90
2024/01/25 10:31:40;;;;;;;10.30;3.47;;;;;;;15.53;51.22;100316.31;6204951;22;42006;-88
2024/01/25 10:34:14;;;;;;;9.77;3.43;;;;;;;16.06;49.86;100323.78;6205427;22;41902;-90
2024/01/25 10:36:43;;;;;;;8.87;3.37;;;;;;;16.60;49.64;100350.69;6197725;22;43278;-92
2024/01/25 10:39:14;;;;;;;14.33;3.23;;;;;;;16.22;49.53;100312.13;6199090;22;39043;-89
2024/01/25 10:41:44;;;;;;;12.17;3.00;;;;;;;16.47;49.31;100304.28;6198443;22;40946;-90
2024/01/25 10:44:15;;;;;;;10.73;3.77;;;;;;;17.00;48.82;100334.78;6198824;22;42492;-89
2024/01/25 10:46:44;;;;;;;8.90;2.60;;;;;;;16.96;48.52;100303.81;6197768;22;42487;-90
2024/01/25 10:49:12;;;;;;;8.17;3.10;;;;;;;17.24;47.05;100284.97;6198556;22;41946;-88
2024/01/25 10:51:41;;;;;;;11.97;3.57;;;;;;;18.00;45.18;100349.41;6198145;22;42047;-88
2024/01/25 10:54:09;;;;;;;14.70;3.37;;;;;;;18.52;44.09;100348.44;6198426;22;41980;-89
2024/01/25 10:56:39;;;;;;;10.13;3.37;;;;;;;18.54;43.47;100358.09;6198240;22;42139;-90
2024/01/25 10:59:08;;;;;;;9.40;2.67;;;;;;;18.15;44.17;100343.00;6198889;22;38719;-89
2024/01/25 11:01:36;;;;;;;8.30;3.10;;;;;;;17.89;44.30;100318.00;6198496;22;43379;-90
2024/01/25 11:04:04;;;;;;;7.70;2.67;;;;;;;17.99;44.03;100303.94;6198807;22;44500;-89
2024/01/25 11:06:32;;;;;;;11.03;3.07;;;;;;;18.35;42.79;100308.53;6198901;22;40928;-89
2024/01/25 11:09:09;;;;;;;7.00;2.93;;;;;;;18.35;43.62;100344.25;6198585;22;39502;-89
2024/01/25 11:11:38;;;;;;;9.67;2.87;;;;;;;18.84;43.45;100303.19;6198202;22;40933;-91
2024/01/25 11:14:13;;;;;;;8.30;3.27;;;;;;;19.17;41.42;100326.66;6198998;22;41892;-90
2024/01/25 11:16:44;;;;;;;10.20;3.67;;;;;;;19.20;41.26;100338.03;6199131;22;42837;-91
2024/01/25 11:19:18;;;;;;;7.60;3.00;;;;;;;19.08;41.42;100338.97;6199293;22;40457;-90
2024/01/25 11:21:47;;;;;;;10.40;2.60;;;;;;;18.95;41.77;100333.63;6198216;22;41051;-89
2024/01/25 11:24:23;;;;;;;7.00;2.83;;;;;;;18.44;41.88;100281.03;6198478;22;41746;-91
2024/01/25 11:26:54;;;;;;;10.47;2.90;;;;;;;18.64;41.21;100323.44;6197884;22;42995;-89
2024/01/25 11:29:24;;;;;;;8.43;2.73;;;;;;;18.40;41.40;100335.91;6198562;22;38994;-89
2024/01/25 11:31:53;;;;;;;8.47;2.53;;;;;;;18.33;41.76;100326.56;6198203;22;42544;-89
2024/01/25 11:34:23;;;;;;;8.93;2.60;;;;;;;18.00;42.15;100282.41;6198481;22;41948;-90
2024/01/25 11:36:51;;;;;;;8.60;2.60;;;;;;;18.17;42.23;100295.50;6197574;22;42616;-89
2024/01/25 11:39:18;;;;;;;9.77;2.57;;;;;;;19.28;40.24;100313.31;6198376;22;40467;-90
2024/01/25 11:41:48;;;;;;;9.67;3.20;;;;;;;20.38;38.59;100287.66;6197403;22;41611;-92
2024/01/25 11:44:18;;;;;;;10.03;2.83;;;;;;;21.34;36.00;100300.44;6198078;22;43761;-90
2024/01/25 11:46:46;;;;;;;7.70;2.53;;;;;;;21.92;35.89;100323.28;6198156;22;41616;-90
2024/01/25 11:49:16;;;;;;;10.43;2.97;;;;;;;21.58;35.70;100325.31;6198618;22;40388;-90
2024/01/25 11:51:48;;;;;;;6.27;2.50;;;;;;;21.00;35.73;100321.22;6198538;22;42152;-89
2024/01/25 11:54:18;;;;;;;8.73;2.93;;;;;;;20.30;36.34;100314.28;6198432;22;43651;-92
2024/01/25 11:56:46;;;;;;;6.43;2.30;;;;;;;19.58;37.42;100307.44;6198120;22;42424;-90
2024/01/25 11:59:15;;;;;;;11.27;2.60;;;;;;;19.36;37.34;100356.56;6198509;22;38916;-90
2024/01/25 12:01:49;;;;;;;6.63;2.43;;;;;;;18.88;38.17;100315.41;6198461;22;42019;-92
2024/01/25 12:04:25;;;;;;;9.23;2.67;;;;;;;18.67;38.57;100272.19;6198808;22;41422;-90
2024/01/25 12:06:53;;;;;;;8.40;2.63;;;;;;;18.64;38.47;100278.69;6199091;22;41300;-90
2024/01/25 12:09:23;;;;;;;5.50;2.40;;;;;;;18.67;38.62;100299.03;6199091;22;39223;-93
2024/01/25 12:11:51;;;;;;;6.70;2.10;;;;;;;18.05;38.47;100250.75;6199648;22;42001;-89
2024/01/25 12:14:24;;;;;;;8.30;2.40;;;;;;;18.20;39.42;100300.59;6198339;22;42170;-93
2024/01/25 12:16:53;;;;;;;8.23;2.30;;;;;;;17.79;39.95;100238.34;6197901;22;41619;-89
2024/01/25 12:19:22;;;;;;;9.47;2.63;;;;;;;18.11;39.53;100287.84;6198329;22;40378;-90
2024/01/25 12:21:56;;;;;;;9.57;2.50;;;;;;;18.33;39.41;100280.97;6197848;22;41015;-91
2024/01/25 12:24:24;;;;;;;11.30;2.93;;;;;;;18.40;38.41;100237.50;6197866;22;41985;-89
2024/01/25 12:26:54;;;;;;;7.60;1.93;;;;;;;19.04;38.24;100277.56;6198264;22;41273;-90
2024/01/25 12:29:21;;;;;;;6.90;1.83;;;;;;;19.56;37.91;100298.66;6198670;22;39468;-91
2024/01/25 12:31:49;;;;;;;7.53;3.00;;;;;;;19.79;37.34;100278.03;6198142;22;41123;-90
2024/01/25 12:34:28;;;;;;;6.57;2.30;;;;;;;19.78;36.43;100276.38;6198221;22;41718;-90
2024/01/25 12:36:56;;;;;;;8.43;2.77;;;;;;;19.73;37.15;100250.69;6197768;22;41382;-90
2024/01/25 12:39:24;;;;;;;6.70;2.40;;;;;;;19.89;37.23;100281.75;6198121;22;38953;-90
2024/01/25 12:41:51;;;;;;;8.27;2.47;;;;;;;19.79;36.39;100286.97;6197978;22;41053;-90
2024/01/25 12:44:19;;;;;;;9.50;2.50;;;;;;;19.45;37.02;100252.91;6197970;22;42008;-91
2024/01/25 12:46:47;;;;;;;9.33;2.50;;;;;;;19.34;37.12;100281.44;6197425;22;42786;-89
2024/01/25 12:49:15;;;;;;;10.70;2.93;;;;;;;19.06;37.93;100280.94;6198266;22;38764;-89
2024/01/25 12:51:44;;;;;;;7.90;2.13;;;;;;;18.38;38.69;100247.47;6197702;22;41174;-89
2024/01/25 12:54:12;;;;;;;12.27;3.07;;;;;;;18.21;38.26;100251.38;6198207;22;43682;-89
2024/01/25 12:56:40;;;;;;;7.83;2.23;;;;;;;18.22;38.70;100269.19;6197611;22;42408;-89
2024/01/25 12:59:09;;;;;;;9.03;2.20;;;;;;;17.95;39.35;100252.38;6197876;22;41327;-89
2024/01/25 13:01:37;;;;;;;8.73;2.50;;;;;;;17.57;39.58;100207.66;6197944;22;41811;-89
2024/01/25 13:04:05;;;;;;;9.00;2.20;;;;;;;17.34;40.57;100178.94;6197718;22;41784;-89
2024/01/25 13:06:33;;;;;;;7.13;2.10;;;;;;;17.64;40.30;100234.06;6197851;22;41217;-89
2024/01/25 13:09:03;;;;;;;9.23;2.63;;;;;;;17.35;40.24;100206.56;6197470;22;40957;-88
2024/01/25 13:11:32;;;;;;;9.23;2.30;;;;;;;17.51;40.66;100228.66;6197695;22;41393;-89
2024/01/25 13:13:59;;;;;;;7.17;2.60;;;;;;;17.08;40.63;100161.13;6197831;22;41780;-89
2024/01/25 13:16:28;;;;;;;11.37;2.57;;;;;;;17.28;41.08;100221.34;6198093;22;41486;-89
2024/01/25 13:18:55;;;;;;;10.33;2.47;;;;;;;17.02;41.28;100228.47;6197688;22;39395;-89
2024/01/25 13:21:23;;;;;;;11.00;2.80;;;;;;;16.73;41.71;100225.91;6198341;22;42531;-88
2024/01/25 13:23:51;;;;;;;11.23;2.60;;;;;;;16.35;42.37;100201.63;6197343;22;42030;-89
2024/01/25 13:26:20;;;;;;;11.97;3.10;;;;;;;16.29;43.18;100214.56;6197269;22;41053;-90
2024/01/25 13:28:47;;;;;;;9.83;2.77;;;;;;;16.11;43.02;100198.72;6197645;22;38754;-89
2024/01/25 13:31:15;;;;;;;8.17;2.80;;;;;;;15.74;43.68;100145.91;6197440;22;41214;-90
2024/01/25 13:33:43;;;;;;;7.80;2.70;;;;;;;15.92;43.93;100167.94;6197069;22;42031;-89
2024/01/25 13:36:13;;;;;;;10.00;3.03;;;;;;;15.79;44.37;100143.81;6196908;22;42117;-89
2024/01/25 13:38:41;;;;;;;6.57;2.63;;;;;;;15.99;44.58;100178.13;6197558;22;40461;-89
2024/01/25 13:41:08;;;;;;;7.27;2.87;;;;;;;15.92;45.05;100168.81;6197282;22;40946;-91
2024/01/25 13:43:37;;;;;;;9.57;2.80;;;;;;;15.83;44.55;100174.72;6197936;22;42225;-89
2024/01/25 13:46:05;;;;;;;10.23;2.97;;;;;;;15.53;45.11;100148.09;6196460;22;41803;-89
2024/01/25 13:48:33;;;;;;;9.80;2.40;;;;;;;15.50;45.36;100150.94;6197406;22;41727;-89
2024/01/25 13:51:01;;;;;;;11.20;2.97;;;;;;;15.29;45.85;100137.13;6196792;22;42869;-89
2024/01/25 13:53:28;;;;;;;12.33;2.63;;;;;;;15.11;45.99;100116.88;6197586;22;41989;-89
2024/01/25 13:55:56;;;;;;;10.07;2.80;;;;;;;15.08;46.17;100127.78;6196719;22;41417;-89
2024/01/25 13:58:26;;;;;;;10.40;3.07;;;;;;;15.03;46.18;100157.38;6197313;22;40813;-90
2024/01/25 14:00:55;;;;;;;9.97;2.93;;;;;;;14.45;46.48;100082.66;6197345;22;40824;-90
2024/01/25 14:03:23;;;;;;;11.23;2.50;;;;;;;14.65;46.91;100142.78;6197556;22;43133;-89
2024/01/25 14:05:51;;;;;;;6.63;2.10;;;;;;;14.38;46.54;100142.56;6197120;22;41029;-89
2024/01/25 14:08:18;;;;;;;10.83;2.67;;;;;;;14.28;46.84;100157.34;6203604;22;39945;-88
2024/01/25 14:10:48;;;;;;;8.87;2.57;;;;;;;14.19;47.19;100160.56;6204510;22;41652;-89
2024/01/25 14:13:16;;;;;;;7.13;2.60;;;;;;;14.06;47.48;100156.88;6206179;22;42596;-90
2024/01/25 14:15:44;;;;;;;7.00;2.67;;;;;;;13.87;48.08;100127.72;6204749;22;42503;-89
2024/01/25 14:18:13;;;;;;;11.00;2.73;;;;;;;13.47;48.26;100073.19;6205259;22;42265;-89
2024/01/25 14:20:40;;;;;;;8.43;2.40;;;;;;;13.78;48.21;100133.56;6204287;22;42916;-88
2024/01/25 14:23:08;;;;;;;8.30;2.43;;;;;;;13.55;48.47;100111.72;6198741;22;44883;-90
2024/01/25 14:25:36;;;;;;;10.50;2.30;;;;;;;13.56;48.81;100131.22;6197969;22;42669;-89
2024/01/25 14:28:04;;;;;;;10.00;3.17;;;;;;;13.33;49.12;100105.84;6198564;22;40653;-89
2024/01/25 14:30:31;;;;;;;10.53;2.60;;;;;;;13.25;49.22;100106.25;6198485;22;42079;-89
2024/01/25 14:32:59;;;;;;;7.53;2.40;;;;;;;13.22;49.37;100116.22;6198817;22;43767;-89
2024/01/25 14:35:29;;;;;;;8.27;2.43;;;;;;;12.71;49.48;100051.50;6198058;22;41077;-89
2024/01/25 14:37:57;;;;;;;11.97;2.73;;;;;;;12.87;49.56;100088.75;6193749;23;39426;-89
2024/01/25 14:40:25;;;;;;;8.93;2.63;;;;;;;12.52;49.77;100056.91;6192666;23;43095;-89
2024/01/25 14:42:53;;;;;;;8.77;2.60;;;;;;;12.79;49.90;100096.28;6193604;23;41971;-89
2024/01/25 14:45:21;;;;;;;3.87;2.40;;;;;;;12.70;50.20;100096.78;6192745;23;41460;-89
2024/01/25 14:47:49;;;;;;;5.17;1.90;;;;;;;12.70;50.25;100096.78;6193580;23;40892;-90
2024/01/25 14:50:17;;;;;;;5.67;2.03;;;;;;;12.67;50.59;100102.22;6193264;23;40728;-89
2024/01/25 14:52:46;;;;;;;6.30;2.10;;;;;;;12.47;50.97;100077.56;6194046;23;42110;-90
2024/01/25 14:55:15;;;;;;;7.77;2.20;;;;;;;12.57;51.11;100097.41;6192950;23;40863;-90
2024/01/25 14:57:42;;;;;;;4.57;2.00;;;;;;;12.45;51.20;100087.38;6193705;23;40393;-90
2024/01/25 15:00:19;;;;;;;5.57;2.10;;;;;;;12.40;51.63;100094.72;6193514;23;41651;-89
2024/01/25 15:02:47;;;;;;;4.57;1.87;;;;;;;11.94;51.90;100031.56;6193695;23;41960;-89
2024/01/25 15:05:15;;;;;;;8.17;2.47;;;;;;;12.25;51.96;100084.84;6193855;23;42437;-90
2024/01/25 15:07:43;;;;;;;8.73;2.53;;;;;;;11.85;52.09;100041.69;6193521;23;38899;-88
2024/01/25 15:10:14;;;;;;;7.20;2.53;;;;;;;11.69;52.14;100042.47;6193609;23;40858;-88
2024/01/25 15:12:53;;;;;;;5.03;2.17;;;;;;;11.68;52.38;100044.25;6193921;23;42347;-89
2024/01/25 15:15:21;;;;;;;10.63;2.20;;;;;;;11.40;52.81;100025.28;6169424;23;41612;-89
2024/01/25 15:17:49;;;;;;;5.57;2.23;;;;;;;11.42;52.90;100034.91;6197519;23;38848;-88
2024/01/25 15:20:17;;;;;;;9.73;2.60;;;;;;;11.25;52.87;100018.06;6213405;23;40759;-87
2024/01/25 15:22:43;;;;;;;4.17;1.67;;;;;;;11.61;53.19;100101.22;6198231;23;43160;-89
2024/01/25 15:25:11;;;;;;;2.77;1.40;;;;;;;11.47;53.21;100101.00;6192117;23;42866;-88
2024/01/25 15:27:40;;;;;;;3.87;1.50;;;;;;;11.26;53.36;100064.84;6193263;23;39189;-89
2024/01/25 15:30:10;;;;;;;3.97;2.10;;;;;;;11.48;53.57;100116.00;6193038;23;41469;-89
2024/01/25 15:32:42;;;;;;;8.03;2.43;;;;;;;11.35;53.97;100097.13;6192878;23;45177;-89
2024/01/25 15:35:10;;;;;;;7.10;2.13;;;;;;;10.99;54.03;100057.25;6192530;23;41749;-89
2024/01/25 15:37:37;;;;;;;4.20;2.00;;;;;;;11.16;54.21;100086.47;6192758;23;39496;-89
2024/01/25 15:40:10;;;;;;;4.70;2.23;;;;;;;11.19;54.23;100100.53;6192620;23;42033;-89
2024/01/25 15:42:40;;;;;;;4.33;1.93;;;;;;;10.95;54.28;100060.94;6192452;23;43249;-88
2024/01/25 15:45:08;;;;;;;5.40;2.07;;;;;;;10.75;54.62;100043.28;6192416;23;41436;-89
2024/01/25 15:47:36;;;;;;;5.23;2.07;;;;;;;10.57;54.66;100027.34;6192711;23;40331;-89
2024/01/25 15:50:05;;;;;;;5.40;1.80;;;;;;;10.61;54.92;100045.69;6193087;23;40952;-89
2024/01/25 15:52:33;;;;;;;3.07;2.20;;;;;;;10.82;54.94;100085.41;6193080;23;42122;-88
2024/01/25 15:55:01;;;;;;;3.77;1.73;;;;;;;10.69;55.08;100077.13;6192398;23;41768;-88
2024/01/25 15:57:29;;;;;;;4.67;1.97;;;;;;;10.69;55.01;100082.44;6192595;23;40115;-89
2024/01/25 16:00:19;;;;;;;3.93;2.17;;;;;;;10.24;55.44;100006.69;6192781;23;41494;-89
2024/01/25 16:02:47;;;;;;;5.63;2.00;;;;;;;10.46;55.59;100061.38;6192275;23;42006;-90
2024/01/25 16:05:15;;;;;;;5.20;2.00;;;;;;;10.47;55.93;100068.41;6192745;23;42912;-88
2024/01/25 16:07:43;;;;;;;4.87;2.47;;;;;;;10.28;56.08;100049.75;6192925;23;40247;-89
2024/01/25 16:10:11;;;;;;;5.33;2.10;;;;;;;10.34;56.34;100068.06;6192914;23;40676;-90
2024/01/25 16:12:38;;;;;;;4.30;2.53;;;;;;;10.09;56.39;100041.72;6192781;23;43847;-88
2024/01/25 16:15:07;;;;;;;6.80;2.63;;;;;;;9.71;56.71;99990.38;6192699;23;44399;-89
2024/01/25 16:17:36;;;;;;;6.90;2.43;;;;;;;9.64;56.92;99987.09;6193316;23;40087;-89
2024/01/25 16:20:05;;;;;;;5.57;2.33;;;;;;;9.97;57.04;100058.09;6192734;23;40419;-89
2024/01/25 16:22:32;;;;;;;5.10;2.87;;;;;;;9.54;57.78;99996.31;6193278;23;43072;-89
2024/01/25 16:25:00;;;;;;;10.17;3.10;;;;;;;9.91;57.52;100064.47;6192745;23;41111;-88
2024/01/25 16:27:27;;;;;;;6.07;2.40;;;;;;;9.84;57.74;100063.03;6193392;23;39287;-88
2024/01/25 16:29:55;;;;;;;8.60;2.53;;;;;;;9.57;58.20;100016.50;6193172;23;40874;-89
2024/01/25 16:32:23;;;;;;;9.63;2.30;;;;;;;9.59;57.92;100019.97;6193062;23;43482;-88
2024/01/25 16:34:53;;;;;;;8.03;2.63;;;;;;;9.71;58.30;100036.19;6192719;23;41201;-89
2024/01/25 16:37:21;;;;;;;9.90;3.03;;;;;;;9.68;58.41;100041.59;6193192;23;40240;-88
2024/01/25 16:39:49;;;;;;;8.53;2.93;;;;;;;9.60;58.73;100054.28;6192063;23;41717;-89
2024/01/25 16:42:17;;;;;;;11.80;2.73;;;;;;;9.32;58.92;100019.25;6192708;23;41880;-89
2024/01/25 16:44:44;;;;;;;5.57;2.20;;;;;;;9.58;59.43;100060.53;6192866;23;42395;-89
2024/01/25 16:47:12;;;;;;;7.90;2.93;;;;;;;9.54;59.58;100062.44;6192946;23;41381;-89
2024/01/25 16:49:39;;;;;;;10.20;3.30;;;;;;;9.45;60.07;100039.00;6192289;23;40889;-88
2024/01/25 16:52:09;;;;;;;5.73;2.57;;;;;;;8.98;60.06;99962.41;6193044;23;43021;-88
2024/01/25 16:54:36;;;;;;;7.60;2.53;;;;;;;9.33;60.29;100019.19;6192068;23;43294;-88
2024/01/25 16:57:04;;;;;;;7.63;2.90;;;;;;;9.22;60.61;99996.75;6192983;23;41432;-89
2024/01/25 16:59:32;;;;;;;10.40;2.67;;;;;;;8.97;60.34;99963.34;6193051;23;41078;-89
2024/01/25 17:01:59;;;;;;;5.00;2.37;;;;;;;9.21;60.40;100005.59;6192696;23;44729;-89
2024/01/25 17:04:27;;;;;;;5.90;2.77;;;;;;;9.34;60.51;100036.78;6192653;23;40883;-89
2024/01/25 17:06:55;;;;;;;6.83;2.80;;;;;;;9.21;60.40;100013.53;6192995;23;38952;-89
2024/01/25 17:09:24;;;;;;;5.73;2.17;;;;;;;9.04;60.58;100000.06;6192584;23;40850;-89
2024/01/25 17:11:52;;;;;;;6.53;2.43;;;;;;;9.17;60.64;100017.19;6192918;23;42131;-89
2024/01/25 17:14:19;;;;;;;6.50;2.70;;;;;;;8.81;60.88;99962.19;6190454;23;42792;-86
2024/01/25 17:16:47;;;;;;;5.13;1.73;;;;;;;9.02;60.82;100003.63;6191686;23;39396;-84
2024/01/25 17:19:14;;;;;;;7.37;2.70;;;;;;;9.02;60.92;100012.50;6192350;23;40847;-84
2024/01/25 17:21:42;;;;;;;5.57;2.30;;;;;;;8.85;61.04;99992.00;6190206;23;42285;-84
2024/01/25 17:24:09;;;;;;;5.60;2.23;;;;;;;8.92;61.31;100006.69;6216233;23;42032;-83
2024/01/25 17:26:38;;;;;;;10.87;2.70;;;;;;;8.94;61.11;100026.84;6192334;23;41666;-84
2024/01/25 17:29:26;;;;;;;7.00;3.17;;;;;;;8.68;61.69;99981.19;6192082;23;44048;-85
2024/01/25 17:31:54;;;;;;;9.50;3.10;;;;;;;8.71;61.67;99997.78;6191977;23;41510;-86
2024/01/25 17:34:25;;;;;;;7.37;2.40;;;;;;;8.74;62.48;100002.97;6191638;23;41343;-85
2024/01/25 17:39:53;;;;;;;11.03;3.80;;;;;;;8.52;62.59;99980.91;6249078;22;42976;-85
2024/01/25 17:42:22;;;;;;;8.20;3.30;;;;;;;8.65;63.44;100003.31;6227567;22;41882;-84
2024/01/25 17:44:50;;;;;;;16.90;4.20;;;;;;;8.68;63.45;100000.53;6227003;22;41276;-85
2024/01/25 17:47:41;;;;;;;10.57;3.20;;;;;;;8.58;63.80;99988.59;6228428;22;39410;-86
2024/01/25 17:55:52;;;;;;;7.80;3.00;;;;;;;8.59;64.54;100011.44;6279348;22;43228;-85
2024/01/25 18:01:17;;;;;;;11.83;3.63;;;;;;;8.43;64.89;100003.19;6227815;22;41880;-85
2024/01/25 18:09:56;;;;;;;12.03;3.30;;;;;;;8.14;65.98;99993.66;6279909;22;41146;-85
2024/01/25 18:12:43;;;;;;;9.13;3.30;;;;;;;8.14;65.89;99990.13;6228625;22;40865;-85
2024/01/25 18:15:14;;;;;;;18.83;4.07;;;;;;;7.98;66.18;99957.28;6227730;22;42483;-84
2024/01/25 18:21:25;;;;;;;7.07;3.27;;;;;;;8.12;67.03;99969.09;6227012;22;39029;-85
2024/01/25 18:24:12;;;;;;;10.73;3.83;;;;;;;8.15;67.11;99970.75;6228174;22;43424;-85
2024/01/25 18:26:46;;;;;;;9.30;3.77;;;;;;;8.28;66.62;100004.56;6226168;22;44473;-86
2024/01/25 18:29:42;;;;;;;8.03;3.97;;;;;;;8.28;67.12;100009.00;6228222;22;42833;-86
2024/01/25 18:32:46;;;;;;;10.87;4.33;;;;;;;8.25;66.70;99999.41;6227966;22;40536;-86
2024/01/25 18:35:15;;;;;;;14.07;4.00;;;;;;;8.22;66.76;100007.41;6226680;22;42045;-85
2024/01/25 18:37:44;;;;;;;8.20;4.20;;;;;;;7.96;67.25;99967.88;6206251;22;42146;-86
2024/01/25 18:40:56;;;;;;;11.43;4.20;;;;;;;8.20;68.12;99996.06;6253561;22;41550;-86
2024/01/25 18:43:24;;;;;;;16.03;4.53;;;;;;;8.13;68.01;99984.00;6253726;22;39196;-85
2024/01/25 18:48:53;;;;;;;10.33;4.03;;;;;;;8.22;67.97;99994.22;6253224;22;41992;-86
2024/01/25 18:51:21;;;;;;;12.80;4.10;;;;;;;8.20;67.50;99984.63;6253177;22;41593;-86
2024/01/25 18:57:45;;;;;;;8.23;3.83;;;;;;;8.26;68.21;99980.03;6292569;22;41985;-85
2024/01/25 19:00:53;;;;;;;9.27;4.00;;;;;;;8.26;68.33;99985.31;6258683;22;42237;-85
2024/01/25 19:07:20;;;;;;;10.13;3.47;;;;;;;8.09;67.93;99950.72;6257027;22;39984;-85
2024/01/25 19:13:21;;;;;;;14.00;4.87;;;;;;;8.34;68.68;99982.41;6311615;22;43042;-85
2024/01/25 19:15:51;;;;;;;10.20;4.70;;;;;;;8.28;68.86;99972.06;6258830;22;41278;-86
2024/01/25 19:18:19;;;;;;;10.83;4.73;;;;;;;8.30;68.47;99965.78;6258505;22;39108;-86
2024/01/25 19:20:47;;;;;;;11.10;4.10;;;;;;;8.35;68.28;99970.94;6258604;22;43252;-86
2024/01/25 19:23:16;;;;;;;8.30;4.03;;;;;;;8.37;68.29;99960.34;6258649;22;41814;-88
2024/01/25 19:25:43;;;;;;;9.73;4.60;;;;;;;8.32;68.23;99951.69;6258390;22;43806;-89
2024/01/25 19:28:11;;;;;;;8.63;4.40;;;;;;;8.43;68.13;99970.66;6257757;22;38901;-85
2024/01/25 19:30:39;;;;;;;10.97;3.87;;;;;;;8.49;67.99;99981.00;6258801;22;40786;-86
2024/01/25 19:33:07;;;;;;;9.90;4.50;;;;;;;8.53;68.29;99982.63;6259212;22;42656;-85
2024/01/25 19:35:38;;;;;;;8.47;4.60;;;;;;;8.45;68.15;99974.09;6258551;22;41040;-87
2024/01/25 19:38:06;;;;;;;7.73;4.27;;;;;;;8.52;68.35;99984.41;6284673;22;40944;-86
2024/01/25 19:40:35;;;;;;;10.93;4.23;;;;;;;8.49;68.25;99978.38;6258801;22;42481;-86
2024/01/25 19:43:04;;;;;;;11.90;4.87;;;;;;;8.51;68.19;99973.91;6259032;22;41840;-86
2024/01/25 19:45:32;;;;;;;10.67;4.63;;;;;;;8.56;67.88;99985.13;6284515;22;42229;-86
2024/01/25 19:47:59;;;;;;;7.67;4.57;;;;;;;8.55;67.93;99975.50;6259670;22;39067;-86
2024/01/25 19:50:27;;;;;;;7.10;3.80;;;;;;;8.60;67.84;99982.34;6258753;22;40855;-87
2024/01/25 19:52:55;;;;;;;6.10;3.70;;;;;;;8.61;67.96;99975.28;6259136;22;41683;-86
2024/01/25 19:55:23;;;;;;;7.00;4.60;;;;;;;8.53;68.15;99961.50;6258310;22;42660;-84
2024/01/25 19:57:53;;;;;;;8.33;4.93;;;;;;;8.59;68.43;99966.53;6259329;22;38977;-85
2024/01/25 20:00:22;;;;;;;8.87;5.50;;;;;;;8.73;68.05;99985.38;6233138;22;40656;-85
